Time;durP1;ratioP1;P1;durP2;ratioP2;P2;SDS_P1;SDS_P2;PMS_P1;PMS_P2;Temp;Humidity;BMP_temperature;BMP_pressure;BME280_temperature;BME280_humidity;BME280_pressure;Samples;Min_cycle;Max_cycle;Signal;HPM_P1;HPM_P2
2023/07/12 00:02:33;;;;;;;9.05;5.18;;;23.00;1.00;;;;;;5135006;28;20035;-64
2023/07/12 00:05:05;;;;;;;6.32;4.68;;;23.00;1.00;;;;;;5139785;28;20042;-62
2023/07/12 00:07:38;;;;;;;4.85;4.20;;;23.00;1.00;;;;;;5121056;28;20049;-64
2023/07/12 00:10:18;;;;;;;;;;;22.90;1.00;;;;;;5106367;28;20039;-64
2023/07/12 00:12:53;;;;;;;5.78;4.72;;;22.90;1.00;;;;;;5140081;28;19917;-64
2023/07/12 00:15:38;;;;;;;7.53;5.10;;;22.80;1.00;;;;;;5120840;28;20042;-61
2023/07/12 00:18:14;;;;;;;;;;;22.80;1.00;;;;;;5140583;28;20033;-65
2023/07/12 00:20:55;;;;;;;7.10;4.70;;;22.90;1.00;;;;;;5189086;28;19914;-64
2023/07/12 00:23:32;;;;;;;6.32;4.75;;;22.80;1.00;;;;;;5120957;28;20050;-63
2023/07/12 00:26:21;;;;;;;7.95;4.97;;;22.70;1.00;;;;;;5108215;28;20494;-62
2023/07/12 00:28:56;;;;;;;8.20;5.55;;;22.70;1.00;;;;;;5102536;29;20403;-62
2023/07/12 00:31:31;;;;;;;8.77;4.80;;;22.60;1.00;;;;;;5120853;28;21059;-64
2023/07/12 00:34:06;;;;;;;6.60;4.70;;;22.60;1.00;;;;;;5123050;28;20039;-62
2023/07/12 00:36:40;;;;;;;8.65;5.28;;;22.60;1.00;;;;;;5139976;28;20027;-64
2023/07/12 00:39:12;;;;;;;8.93;5.28;;;22.50;1.00;;;;;;5135115;28;20030;-63
2023/07/12 00:42:09;;;;;;;8.73;4.80;;;22.40;1.00;;;;;;5119106;29;20027;-64
2023/07/12 00:44:47;;;;;;;9.15;5.63;;;22.30;1.00;;;;;;5119068;29;20019;-62
2023/07/12 00:47:20;;;;;;;8.98;5.75;;;22.30;1.00;;;;;;5101255;29;20035;-62
2023/07/12 00:49:59;;;;;;;6.17;5.10;;;22.30;1.00;;;;;;5119000;28;20023;-63
2023/07/12 00:52:33;;;;;;;6.22;4.18;;;22.20;1.00;;;;;;5121245;28;20422;-65
2023/07/12 00:55:05;;;;;;;7.43;4.85;;;22.20;1.00;;;;;;5117775;29;20053;-64
2023/07/12 00:57:41;;;;;;;5.90;4.88;;;22.20;1.00;;;;;;5112599;28;20480;-62
2023/07/12 01:00:19;;;;;;;11.35;4.80;;;22.20;1.00;;;;;;5134956;28;20038;-65
2023/07/12 01:02:50;;;;;;;7.38;5.03;;;22.20;1.00;;;;;;5227703;23;20226;-67
2023/07/12 01:05:21;;;;;;;9.40;5.38;;;22.20;1.00;;;;;;5215096;28;20041;-67
2023/07/12 01:07:53;;;;;;;6.72;5.03;;;22.30;1.00;;;;;;5234836;28;20325;-67
2023/07/12 01:10:24;;;;;;;7.95;5.60;;;22.30;1.00;;;;;;5225231;28;20178;-68
2023/07/12 01:13:00;;;;;;;10.07;5.10;;;22.30;1.00;;;;;;5210523;28;20430;-68
2023/07/12 01:15:34;;;;;;;5.53;4.68;;;22.30;1.00;;;;;;5205124;28;20213;-68
2023/07/12 01:18:07;;;;;;;7.35;4.93;;;22.30;1.00;;;;;;5226295;28;20231;-68
2023/07/12 01:20:40;;;;;;;8.02;5.72;;;22.30;1.00;;;;;;5225618;28;20039;-68
2023/07/12 01:23:14;;;;;;;11.68;5.75;;;22.30;1.00;;;;;;5242518;28;20055;-70
2023/07/12 01:25:46;;;;;;;7.13;5.47;;;22.20;1.00;;;;;;5241629;28;20052;-69
2023/07/12 01:28:22;;;;;;;5.72;4.68;;;22.20;1.00;;;;;;5240052;28;20054;-69
2023/07/12 01:30:56;;;;;;;6.82;5.63;;;22.10;1.00;;;;;;5214650;28;20374;-67
2023/07/12 01:33:28;;;;;;;7.75;5.25;;;22.10;1.00;;;;;;5242826;28;20036;-67
2023/07/12 01:35:59;;;;;;;7.95;4.97;;;22.20;1.00;;;;;;5241870;28;20036;-67
2023/07/12 01:38:33;;;;;;;8.38;5.20;;;23.00;1.00;;;;;;5222204;28;20310;-67
2023/07/12 01:41:09;;;;;;;8.93;4.75;;;23.60;99.90;;;;;;5205952;28;20042;-67
2023/07/12 01:43:43;;;;;;;9.25;3.85;;;24.00;1.00;;;;;;5242392;28;20194;-68
2023/07/12 01:46:15;;;;;;;4.93;3.50;;;24.20;1.00;;;;;;5220298;28;20034;-68
2023/07/12 01:48:49;;;;;;;7.93;2.88;;;24.30;99.90;;;;;;5225097;28;20272;-67
2023/07/12 01:51:21;;;;;;;5.50;2.00;;;24.30;1.00;;;;;;5206487;28;20051;-67
2023/07/12 01:53:53;;;;;;;2.75;1.77;;;24.30;1.00;;;;;;5200958;28;20037;-66
2023/07/12 01:56:25;;;;;;;2.33;2.13;;;24.30;99.90;;;;;;5240188;28;20169;-67
2023/07/12 01:58:58;;;;;;;4.80;2.10;;;24.40;1.00;;;;;;5223978;28;20040;-68
2023/07/12 02:01:29;;;;;;;5.88;2.17;;;24.30;1.00;;;;;;5197130;28;20336;-67
2023/07/12 02:04:00;;;;;;;5.45;2.17;;;24.10;1.00;;;;;;5242450;28;20036;-67
2023/07/12 02:06:35;;;;;;;3.85;1.95;;;24.00;1.00;;;;;;5224792;28;20343;-67
2023/07/12 02:09:06;;;;;;;;;;;23.90;1.00;;;;;;5226582;28;20032;-66
2023/07/12 02:11:42;;;;;;;1.63;1.38;;;23.90;1.00;;;;;;5246699;28;19908;-66
2023/07/12 02:14:15;;;;;;;1.63;1.25;;;23.80;1.00;;;;;;5229709;28;20228;-67
2023/07/12 02:16:47;;;;;;;1.85;1.42;;;23.80;1.00;;;;;;5205945;28;20268;-67
2023/07/12 02:19:19;;;;;;;7.70;1.77;;;23.90;1.00;;;;;;5225517;28;20029;-67
2023/07/12 02:21:51;;;;;;;2.20;1.23;;;23.80;1.00;;;;;;5224265;28;20041;-67
2023/07/12 02:24:22;;;;;;;2.15;1.20;;;23.80;1.00;;;;;;5207501;28;20040;-67
2023/07/12 02:26:53;;;;;;;3.65;1.10;;;23.80;1.00;;;;;;5225065;28;20036;-68
2023/07/12 02:29:28;;;;;;;1.88;0.80;;;23.80;1.00;;;;;;5208423;28;20057;-67
2023/07/12 02:32:00;;;;;;;1.27;1.02;;;23.80;99.90;;;;;;5224255;28;20441;-65
2023/07/12 02:34:31;;;;;;;2.95;1.10;;;23.80;99.90;;;;;;5207826;28;20353;-70
2023/07/12 02:37:02;;;;;;;1.88;1.08;;;23.80;99.90;;;;;;5206943;28;20290;-68
2023/07/12 02:39:37;;;;;;;1.00;0.90;;;23.80;99.90;;;;;;5208005;28;20431;-68
2023/07/12 02:42:08;;;;;;;1.08;1.00;;;23.70;99.90;;;;;;5207415;28;20290;-68
2023/07/12 02:44:39;;;;;;;3.60;1.25;;;23.80;99.90;;;;;;5208109;28;20033;-67
2023/07/12 02:47:11;;;;;;;0.80;0.80;;;23.80;99.90;;;;;;5203811;28;20131;-68
2023/07/12 02:49:43;;;;;;;2.28;0.80;;;23.80;99.90;;;;;;5207234;28;20124;-67
2023/07/12 02:52:14;;;;;;;1.65;1.15;;;23.80;99.90;;;;;;5228472;28;20029;-68
2023/07/12 02:54:46;;;;;;;1.67;0.93;;;23.70;99.90;;;;;;5203467;28;20037;-66
2023/07/12 02:57:18;;;;;;;1.02;0.88;;;23.70;99.90;;;;;;5192914;28;20037;-67
2023/07/12 02:59:51;;;;;;;0.70;0.70;;;23.60;99.90;;;;;;5207450;28;20436;-66
2023/07/12 03:02:26;;;;;;;1.43;0.80;;;23.50;99.90;;;;;;5229415;28;20079;-67
2023/07/12 03:05:01;;;;;;;0.80;0.80;;;23.50;99.90;;;;;;5206390;28;20245;-66
2023/07/12 03:07:34;;;;;;;;;;;23.40;99.90;;;;;;5207622;28;20337;-69
2023/07/12 03:10:06;;;;;;;1.80;0.63;;;23.30;99.90;;;;;;5242595;28;19911;-67
2023/07/12 03:12:42;;;;;;;3.10;1.00;;;23.30;99.90;;;;;;5226289;28;20301;-67
2023/07/12 03:15:13;;;;;;;1.52;0.70;;;23.20;99.90;;;;;;5196728;28;20033;-67
2023/07/12 03:17:46;;;;;;;1.13;1.00;;;23.20;99.90;;;;;;5208653;28;20039;-67
2023/07/12 03:20:19;;;;;;;6.30;0.80;;;23.20;99.90;;;;;;5205465;28;20025;-67
2023/07/12 03:22:53;;;;;;;0.80;0.80;;;23.10;1.00;;;;;;5178469;28;20043;-68
2023/07/12 03:25:24;;;;;;;1.15;0.90;;;23.00;1.00;;;;;;5224894;28;20036;-67
2023/07/12 03:27:56;;;;;;;1.45;0.80;;;23.00;1.00;;;;;;5206380;28;20027;-67
2023/07/12 03:30:27;;;;;;;0.80;0.80;;;23.10;1.00;;;;;;5221541;28;20348;-67
2023/07/12 03:33:04;;;;;;;1.75;0.82;;;23.10;99.90;;;;;;5212561;28;20021;-66
2023/07/12 03:35:37;;;;;;;2.80;0.88;;;23.10;99.90;;;;;;5206187;28;20029;-67
2023/07/12 03:38:08;;;;;;;0.60;0.60;;;23.20;99.90;;;;;;5206331;28;20119;-68
2023/07/12 03:40:40;;;;;;;1.13;0.80;;;23.20;99.90;;;;;;5224442;28;20029;-67
2023/07/12 03:43:14;;;;;;;1.27;0.85;;;23.30;99.90;;;;;;5205605;28;20037;-67
2023/07/12 03:45:45;;;;;;;0.82;0.70;;;23.30;99.90;;;;;;5202302;28;20052;-68
2023/07/12 03:48:24;;;;;;;2.00;1.10;;;23.40;99.90;;;;;;5206413;28;20047;-69
2023/07/12 03:51:01;;;;;;;0.80;0.65;;;23.50;99.90;;;;;;5222357;28;20236;-68
2023/07/12 03:53:35;;;;;;;1.00;0.90;;;23.60;30.80;;;;;;5224547;28;20033;-69
2023/07/12 03:56:09;;;;;;;1.13;0.70;;;23.80;1.00;;;;;;5222005;28;20195;-66
2023/07/12 03:58:44;;;;;;;1.10;0.73;;;24.00;1.00;;;;;;5222041;28;20371;-69
2023/07/12 04:01:16;;;;;;;0.80;0.80;;;24.10;1.00;;;;;;5204692;28;20024;-68
2023/07/12 04:03:50;;;;;;;0.77;0.70;;;24.30;1.00;;;;;;5226385;28;20366;-69
2023/07/12 04:06:21;;;;;;;0.80;0.65;;;24.40;1.00;;;;;;5225770;28;20038;-69
2023/07/12 04:08:55;;;;;;;1.20;0.75;;;24.50;1.00;;;;;;5244354;28;20040;-67
2023/07/12 04:11:41;;;;;;;1.17;0.65;;;24.70;99.90;;;;;;5244554;28;20344;-68
2023/07/12 04:14:12;;;;;;;1.15;1.05;;;24.80;99.90;;;;;;5226102;28;20059;-69
2023/07/12 04:16:46;;;;;;;1.63;0.90;;;24.70;99.90;;;;;;5211365;28;20051;-67
2023/07/12 04:19:17;;;;;;;5.75;1.25;;;24.50;99.90;;;;;;5204439;28;20161;-67
2023/07/12 04:21:51;;;;;;;1.15;0.82;;;24.70;99.90;;;;;;5222481;28;20033;-68
2023/07/12 04:24:22;;;;;;;1.95;0.70;;;24.90;99.90;;;;;;5187786;28;20057;-68
2023/07/12 04:26:59;;;;;;;0.60;0.60;;;25.10;99.90;;;;;;5138581;28;20039;-67
2023/07/12 04:29:31;;;;;;;3.75;0.73;;;25.10;99.90;;;;;;5205313;28;20047;-67
2023/07/12 04:32:03;;;;;;;2.10;1.10;;;25.10;99.90;;;;;;5225120;28;20062;-69
2023/07/12 04:34:34;;;;;;;0.70;0.70;;;25.10;80.30;;;;;;5243135;28;20047;-69
2023/07/12 04:37:08;;;;;;;1.42;0.60;;;25.00;45.50;;;;;;5216245;28;20029;-67
2023/07/12 04:39:47;;;;;;;0.95;0.70;;;25.00;35.90;;;;;;5221691;28;20055;-68
2023/07/12 04:42:18;;;;;;;1.30;0.80;;;25.00;72.70;;;;;;5222797;28;20314;-68
2023/07/12 04:44:53;;;;;;;0.68;0.60;;;24.90;79.10;;;;;;5204237;28;20064;-69
2023/07/12 04:47:24;;;;;;;0.60;0.60;;;24.80;99.90;;;;;;5235400;28;20197;-69
2023/07/12 04:49:56;;;;;;;2.47;0.73;;;24.60;99.90;;;;;;5197775;28;20039;-70
2023/07/12 04:52:27;;;;;;;1.17;0.90;;;24.50;99.90;;;;;;5209544;28;20071;-69
2023/07/12 04:54:58;;;;;;;1.63;0.88;;;24.40;99.90;;;;;;5223455;28;20043;-70
2023/07/12 04:57:32;;;;;;;1.00;0.75;;;24.40;99.90;;;;;;5204389;28;20033;-69
2023/07/12 05:00:04;;;;;;;;;;;24.30;99.90;;;;;;5203244;28;20321;-68
2023/07/12 05:02:38;;;;;;;3.03;1.75;;;24.30;99.90;;;;;;5213938;28;19939;-67
2023/07/12 05:05:13;;;;;;;2.20;0.80;;;24.30;99.90;;;;;;5225259;28;20210;-69
2023/07/12 05:07:46;;;;;;;3.00;0.70;;;24.30;99.90;;;;;;5223180;28;20025;-69
2023/07/12 05:10:18;;;;;;;1.25;0.77;;;24.30;99.90;;;;;;5222372;28;20029;-68
2023/07/12 05:12:50;;;;;;;1.80;1.33;;;24.30;99.90;;;;;;5220332;28;20519;-69
2023/07/12 05:15:24;;;;;;;1.05;0.80;;;24.30;99.90;;;;;;5219275;28;20025;-68
2023/07/12 05:17:58;;;;;;;1.40;1.15;;;24.30;1.00;;;;;;5221796;28;20420;-69
2023/07/12 05:20:32;;;;;;;1.67;1.05;;;24.40;1.00;;;;;;5221943;28;20028;-68
2023/07/12 05:23:08;;;;;;;1.08;0.98;;;24.30;1.00;;;;;;5223930;28;20033;-68
2023/07/12 05:25:54;;;;;;;0.77;0.73;;;24.40;1.00;;;;;;5203531;28;20036;-67
2023/07/12 05:28:28;;;;;;;2.92;0.90;;;24.60;99.90;;;;;;5199752;28;20025;-68
2023/07/12 05:31:07;;;;;;;2.33;0.90;;;25.00;99.90;;;;;;5221436;28;20039;-68
2023/07/12 05:33:47;;;;;;;2.65;0.80;;;25.30;99.90;;;;;;5235507;28;20029;-68
2023/07/12 05:36:20;;;;;;;1.48;0.60;;;25.40;99.90;;;;;;5221730;28;20039;-70
2023/07/12 05:38:54;;;;;;;4.15;0.93;;;25.70;99.90;;;;;;5204436;28;20039;-70
2023/07/12 05:41:28;;;;;;;;;;;26.20;81.70;;;;;;5205176;28;20016;-67
2023/07/12 05:43:59;;;;;;;2.25;0.70;;;26.60;1.00;;;;;;5222178;28;19908;-68
2023/07/12 05:46:33;;;;;;;3.80;1.13;;;26.80;1.00;;;;;;5203540;28;20033;-69
2023/07/12 05:49:07;;;;;;;1.90;1.20;;;27.00;1.00;;;;;;5203758;28;20057;-68
2023/07/12 05:51:38;;;;;;;1.45;0.95;;;26.90;1.00;;;;;;5187459;28;20416;-69
2023/07/12 05:54:12;;;;;;;1.10;1.00;;;26.90;99.90;;;;;;5223126;28;20029;-67
2023/07/12 05:56:44;;;;;;;0.80;0.65;;;26.90;99.90;;;;;;5223284;28;20119;-67
2023/07/12 05:59:18;;;;;;;2.20;1.08;;;27.30;99.90;;;;;;5221560;28;20029;-68
2023/07/12 06:01:52;;;;;;;1.70;0.90;;;27.50;99.90;;;;;;5200201;28;20051;-69
2023/07/12 06:04:26;;;;;;;1.27;0.85;;;27.70;99.90;;;;;;5184624;28;20045;-68
2023/07/12 06:06:58;;;;;;;1.30;0.70;;;27.80;1.00;;;;;;5202377;28;20041;-68
2023/07/12 06:09:29;;;;;;;1.45;1.35;;;27.80;1.00;;;;;;5185542;28;20071;-66
2023/07/12 06:12:03;;;;;;;2.10;0.90;;;27.80;1.00;;;;;;5201169;28;20018;-68
2023/07/12 06:14:35;;;;;;;0.85;0.63;;;27.90;1.00;;;;;;5201082;28;20048;-67
2023/07/12 06:17:09;;;;;;;1.25;0.82;;;28.00;1.00;;;;;;5207562;28;20029;-68
2023/07/12 06:19:40;;;;;;;;;;;28.10;1.00;;;;;;5204066;28;20043;-68
2023/07/12 06:22:12;;;;;;;0.80;0.80;;;28.20;1.00;;;;;;5203997;28;19900;-69
2023/07/12 06:24:43;;;;;;;1.45;0.85;;;28.50;1.00;;;;;;5216527;28;20032;-68
2023/07/12 06:27:17;;;;;;;1.52;0.93;;;28.30;1.00;;;;;;5208271;28;20044;-70
2023/07/12 06:29:48;;;;;;;1.95;0.98;;;28.40;99.90;;;;;;5170814;28;20036;-69
2023/07/12 06:32:25;;;;;;;1.77;1.15;;;28.30;99.90;;;;;;5202402;28;20032;-68
2023/07/12 06:34:56;;;;;;;1.55;1.00;;;28.40;99.90;;;;;;5203517;28;20055;-68
2023/07/12 06:37:28;;;;;;;1.70;1.05;;;28.20;99.90;;;;;;5214972;28;20025;-68
2023/07/12 06:39:59;;;;;;;1.55;1.10;;;28.10;99.90;;;;;;5219823;28;20029;-69
2023/07/12 06:42:31;;;;;;;1.92;0.60;;;28.10;99.90;;;;;;5221439;28;20039;-67
2023/07/12 06:45:02;;;;;;;1.77;1.45;;;28.00;99.90;;;;;;5203062;28;20045;-70
2023/07/12 06:47:36;;;;;;;3.47;0.77;;;27.60;99.90;;;;;;5222250;28;20040;-69
2023/07/12 06:50:18;;;;;;;1.08;1.00;;;27.60;99.90;;;;;;5203284;28;20032;-69
2023/07/12 06:52:53;;;;;;;0.75;0.70;;;27.80;99.90;;;;;;5221513;28;20509;-69
2023/07/12 06:55:24;;;;;;;;;;;28.20;99.90;;;;;;5204672;28;20035;-68
2023/07/12 06:57:58;;;;;;;5.20;1.00;;;28.80;99.90;;;;;;5207315;28;19968;-70
2023/07/12 07:00:29;;;;;;;1.13;0.80;;;29.30;99.90;;;;;;5224236;28;20025;-70
2023/07/12 07:03:01;;;;;;;1.48;1.38;;;29.20;99.90;;;;;;5223468;28;20045;-69
2023/07/12 07:05:35;;;;;;;0.95;0.93;;;29.30;99.90;;;;;;5207277;28;20029;-69
2023/07/12 07:08:10;;;;;;;1.27;0.88;;;30.00;99.90;;;;;;5225442;28;20037;-69
2023/07/12 07:10:49;;;;;;;1.27;1.05;;;29.60;99.90;;;;;;5208291;28;20035;-69
2023/07/12 07:13:22;;;;;;;3.55;0.93;;;29.50;97.20;;;;;;5225212;28;20045;-69
2023/07/12 07:15:53;;;;;;;2.40;0.90;;;28.80;99.90;;;;;;5223727;28;20540;-68
2023/07/12 07:18:25;;;;;;;0.90;0.77;;;28.80;80.30;;;;;;5207521;28;20021;-69
2023/07/12 07:20:59;;;;;;;3.70;0.90;;;28.30;99.90;;;;;;5206317;28;20031;-68
2023/07/12 07:23:30;;;;;;;;;;;28.80;67.50;;;;;;5224624;28;20029;-67
2023/07/12 07:26:07;;;;;;;1.60;1.30;;;29.10;39.80;;;;;;5224856;28;19917;-70
2023/07/12 07:28:42;;;;;;;1.13;0.88;;;29.20;4.60;;;;;;5189643;28;20116;-69
2023/07/12 07:31:13;;;;;;;3.00;1.20;;;29.60;8.40;;;;;;5188934;28;20033;-70
2023/07/12 07:33:49;;;;;;;2.67;0.90;;;30.00;1.00;;;;;;5210438;28;20066;-69
2023/07/12 07:36:23;;;;;;;0.90;0.82;;;30.30;1.00;;;;;;5206782;28;20589;-69
2023/07/12 07:38:54;;;;;;;0.98;0.85;;;30.40;1.00;;;;;;5206256;28;20029;-68
2023/07/12 07:41:31;;;;;;;0.75;0.75;;;30.90;1.00;;;;;;5224111;28;20036;-68
2023/07/12 07:44:05;;;;;;;2.30;0.90;;;31.20;1.00;;;;;;5190517;28;20417;-72
2023/07/12 07:46:37;;;;;;;2.25;1.48;;;31.50;1.00;;;;;;5223251;28;20024;-69
2023/07/12 07:49:14;;;;;;;3.90;1.20;;;31.80;1.00;;;;;;5206758;28;20531;-69
2023/07/12 07:51:48;;;;;;;1.63;0.90;;;31.60;1.00;;;;;;5224694;28;20402;-70
2023/07/12 07:54:22;;;;;;;1.20;1.10;;;31.00;1.00;;;;;;5206202;28;20541;-70
2023/07/12 07:56:55;;;;;;;1.50;0.80;;;31.30;1.00;;;;;;5205700;28;20032;-69
2023/07/12 07:59:27;;;;;;;1.52;1.10;;;31.90;1.00;;;;;;5206688;28;20051;-69
2023/07/12 08:02:00;;;;;;;2.92;1.00;;;32.30;1.00;;;;;;5220827;28;20342;-69
2023/07/12 08:04:32;;;;;;;2.40;1.48;;;32.30;1.00;;;;;;5224476;28;20021;-70
2023/07/12 08:07:05;;;;;;;2.70;1.55;;;32.50;1.00;;;;;;5205959;28;20033;-69
2023/07/12 08:09:37;;;;;;;2.83;1.55;;;32.70;1.00;;;;;;5225149;28;20021;-68
2023/07/12 08:12:09;;;;;;;3.63;1.65;;;32.70;1.00;;;;;;5190956;28;20040;-69
2023/07/12 08:14:42;;;;;;;1.50;1.40;;;32.80;1.00;;;;;;5222678;28;20032;-70
2023/07/12 08:17:14;;;;;;;;;;;33.20;1.00;;;;;;5222838;28;20428;-68
2023/07/12 08:19:50;;;;;;;1.85;1.40;;;33.30;1.00;;;;;;5225129;28;19915;-70
2023/07/12 08:22:26;;;;;;;1.52;1.40;;;33.20;1.00;;;;;;5206316;28;20035;-70
2023/07/12 08:25:06;;;;;;;1.83;1.70;;;33.40;1.00;;;;;;5224391;28;20037;-70
2023/07/12 08:27:37;;;;;;;2.33;1.40;;;34.00;1.00;;;;;;5205359;28;20074;-69
2023/07/12 08:30:12;;;;;;;3.70;1.67;;;34.20;1.00;;;;;;5190432;28;20021;-70
2023/07/12 08:32:46;;;;;;;2.00;1.65;;;34.10;1.00;;;;;;5226293;28;20236;-69
2023/07/12 08:35:20;;;;;;;;;;;34.50;1.00;;;;;;5219404;28;20042;-69
2023/07/12 08:37:55;;;;;;;1.42;1.10;;;34.90;1.00;;;;;;5220352;28;19919;-69
2023/07/12 08:40:30;;;;;;;1.75;1.40;;;35.50;1.00;;;;;;5205196;28;20030;-69
2023/07/12 08:43:01;;;;;;;1.52;1.25;;;36.00;1.00;;;;;;5211027;28;20051;-69
2023/07/12 08:45:35;;;;;;;2.45;1.55;;;36.50;1.00;;;;;;5206840;28;20451;-69
2023/07/12 08:48:19;;;;;;;1.73;1.50;;;37.10;1.00;;;;;;5206678;28;20041;-70
2023/07/12 08:50:55;;;;;;;1.60;1.50;;;37.10;1.00;;;;;;5206867;28;20032;-68
2023/07/12 08:53:30;;;;;;;2.08;1.60;;;36.90;1.00;;;;;;5206829;28;20068;-69
2023/07/12 08:56:04;;;;;;;2.10;1.40;;;37.40;1.00;;;;;;5205265;28;20039;-69
2023/07/12 08:58:42;;;;;;;1.95;1.85;;;37.90;1.00;;;;;;5222974;28;20182;-68
2023/07/12 09:01:26;;;;;;;1.75;1.65;;;37.70;1.00;;;;;;5204582;28;20033;-69
2023/07/12 09:03:58;;;;;;;;;;;36.10;1.00;;;;;;5202938;28;20029;-69
2023/07/12 09:06:30;;;;;;;1.25;1.15;;;36.00;1.00;;;;;;5191379;28;19914;-69
2023/07/12 09:09:04;;;;;;;3.00;1.70;;;36.50;1.00;;;;;;5221091;28;20229;-71
2023/07/12 09:11:42;;;;;;;1.20;1.10;;;36.50;1.00;;;;;;5223599;28;20029;-68
2023/07/12 09:14:26;;;;;;;2.10;1.50;;;36.50;1.00;;;;;;5223114;28;20041;-71
2023/07/12 09:17:01;;;;;;;1.92;1.60;;;36.40;1.00;;;;;;5234208;28;20041;-71
2023/07/12 09:19:37;;;;;;;1.80;1.50;;;35.80;1.00;;;;;;5204185;28;20036;-70
2023/07/12 09:22:15;;;;;;;4.57;1.80;;;36.10;1.00;;;;;;5223122;28;20409;-69
2023/07/12 09:24:55;;;;;;;3.15;1.60;;;36.50;1.00;;;;;;5204371;28;20390;-69
2023/07/12 09:27:28;;;;;;;1.58;1.27;;;37.20;1.00;;;;;;5205036;28;20532;-70
2023/07/12 09:30:03;;;;;;;2.15;1.65;;;37.20;1.00;;;;;;5204595;28;20063;-69
2023/07/12 09:32:41;;;;;;;3.42;1.40;;;37.40;1.00;;;;;;5236469;28;20031;-70
2023/07/12 09:35:49;;;;;;;1.77;1.00;;;37.80;1.00;;;;;;5204304;28;20214;-70
2023/07/12 09:38:30;;;;;;;2.20;1.45;;;38.00;1.00;;;;;;5220858;28;20134;-70
2023/07/12 09:41:09;;;;;;;1.63;1.52;;;37.20;1.00;;;;;;5215549;28;20231;-70
2023/07/12 09:43:41;;;;;;;1.73;1.45;;;37.40;1.00;;;;;;5119437;28;20023;-69
2023/07/12 09:46:33;;;;;;;4.43;2.45;;;37.90;1.00;;;;;;5148996;28;20210;-70
2023/07/12 09:49:34;;;;;;;1.98;1.50;;;37.80;1.00;;;;;;5207973;28;20029;-71
2023/07/12 09:52:13;;;;;;;1.90;1.30;;;36.80;1.00;;;;;;5216107;28;20032;-69
2023/07/12 09:55:04;;;;;;;1.67;1.30;;;36.40;1.00;;;;;;5223156;28;20070;-69
2023/07/12 09:57:51;;;;;;;4.05;1.95;;;36.40;1.00;;;;;;5187770;28;20048;-70
2023/07/12 10:00:42;;;;;;;5.60;1.83;;;36.80;1.00;;;;;;5185975;28;20045;-69
2023/07/12 10:03:52;;;;;;;1.70;1.60;;;37.00;1.00;;;;;;5203525;28;20057;-70
2023/07/12 10:06:38;;;;;;;0.80;0.75;;;36.40;1.00;;;;;;5179617;28;20048;-69
2023/07/12 10:09:16;;;;;;;1.98;1.27;;;36.60;1.00;;;;;;5146739;28;20044;-69
2023/07/12 10:12:19;;;;;;;1.55;1.10;;;36.30;1.00;;;;;;5179159;28;20529;-70
2023/07/12 10:14:55;;;;;;;1.67;1.17;;;36.50;1.00;;;;;;5111947;28;20034;-70
2023/07/12 10:17:40;;;;;;;1.13;0.80;;;35.90;1.00;;;;;;5142432;28;20358;-70
2023/07/12 10:20:28;;;;;;;2.00;1.00;;;36.70;1.00;;;;;;5167570;28;20048;-70
2023/07/12 10:23:01;;;;;;;2.65;1.30;;;37.10;1.00;;;;;;5162670;28;20034;-69
2023/07/12 10:25:44;;;;;;;2.17;1.10;;;36.50;1.00;;;;;;5178861;28;20346;-68
2023/07/12 10:28:42;;;;;;;1.48;1.05;;;35.40;1.00;;;;;;5163944;28;20041;-68
2023/07/12 10:31:50;;;;;;;1.15;1.05;;;34.90;1.00;;;;;;5152141;28;20044;-69
2023/07/12 10:34:44;;;;;;;1.10;1.00;;;35.70;1.00;;;;;;5163667;28;20077;-69
2023/07/12 10:37:21;;;;;;;1.20;1.10;;;36.00;1.00;;;;;;5169615;28;20029;-69
2023/07/12 10:39:53;;;;;;;1.45;0.90;;;36.30;1.00;;;;;;5189709;28;20030;-69
2023/07/12 10:42:41;;;;;;;1.38;1.00;;;36.30;1.00;;;;;;5188548;28;20043;-70
2023/07/12 10:45:23;;;;;;;0.88;0.88;;;36.70;1.00;;;;;;5205089;28;20040;-69
2023/07/12 10:47:58;;;;;;;2.35;0.90;;;36.30;1.00;;;;;;5204189;28;20036;-69
2023/07/12 10:50:37;;;;;;;1.20;0.80;;;36.20;1.00;;;;;;5208656;28;20522;-70
2023/07/12 10:53:22;;;;;;;1.65;1.50;;;36.60;1.00;;;;;;5208857;28;20249;-68
2023/07/12 10:56:10;;;;;;;2.00;1.85;;;36.00;1.00;;;;;;5209519;28;20218;-68
2023/07/12 10:58:44;;;;;;;2.45;1.80;;;36.10;1.00;;;;;;5191135;28;20033;-68
2023/07/12 11:01:42;;;;;;;0.98;0.90;;;37.70;1.00;;;;;;5224966;28;20025;-69
2023/07/12 11:04:35;;;;;;;4.07;1.20;;;37.80;1.00;;;;;;5204023;28;20045;-69
2023/07/12 11:07:14;;;;;;;3.42;1.10;;;38.10;1.00;;;;;;5188200;28;20423;-69
2023/07/12 11:09:48;;;;;;;1.10;1.05;;;38.50;1.00;;;;;;5188401;28;20038;-70
2023/07/12 11:12:34;;;;;;;1.17;1.02;;;39.10;1.00;;;;;;5188058;28;20463;-68
2023/07/12 11:15:28;;;;;;;1.70;1.13;;;39.30;99.90;;;;;;5204309;28;20039;-69
2023/07/12 11:18:06;;;;;;;1.42;1.10;;;37.50;99.90;;;;;;5227557;28;20027;-70
2023/07/12 11:21:01;;;;;;;1.05;1.00;;;36.40;99.90;;;;;;5226488;28;20037;-68
2023/07/12 11:23:38;;;;;;;0.93;0.93;;;36.20;1.00;;;;;;5209488;28;20017;-70
2023/07/12 11:26:29;;;;;;;1.38;1.20;;;36.50;1.00;;;;;;5212031;28;20039;-69
2023/07/12 11:29:24;;;;;;;1.10;1.00;;;36.00;99.90;;;;;;5220081;28;20040;-69
2023/07/12 11:32:25;;;;;;;3.03;1.20;;;36.10;1.00;;;;;;5224877;28;20343;-70
2023/07/12 11:35:12;;;;;;;1.65;1.10;;;36.40;1.00;;;;;;5208479;28;20017;-70
2023/07/12 11:37:54;;;;;;;1.30;1.20;;;36.30;1.00;;;;;;5224145;28;20253;-69
2023/07/12 11:40:35;;;;;;;1.30;1.20;;;35.40;1.00;;;;;;5209164;28;20037;-69
2023/07/12 11:43:22;;;;;;;1.38;1.27;;;34.80;1.00;;;;;;5226853;28;20029;-69
2023/07/12 11:45:56;;;;;;;1.55;1.13;;;34.90;1.00;;;;;;5211351;28;20017;-68
2023/07/12 11:48:33;;;;;;;1.65;1.55;;;34.40;1.00;;;;;;5208179;28;20045;-70
2023/07/12 11:51:08;;;;;;;2.65;2.45;;;34.30;1.00;;;;;;5191703;28;20039;-70
2023/07/12 11:53:51;;;;;;;1.58;1.13;;;34.20;1.00;;;;;;5193066;28;20567;-70
2023/07/12 11:56:27;;;;;;;1.70;1.30;;;33.70;1.00;;;;;;5225914;28;20041;-70
2023/07/12 11:59:00;;;;;;;1.17;1.08;;;33.70;1.00;;;;;;5205422;28;20025;-71
2023/07/12 12:01:37;;;;;;;1.40;1.20;;;34.10;1.00;;;;;;5202758;28;20041;-69
2023/07/12 12:04:11;;;;;;;2.60;1.40;;;35.10;1.00;;;;;;5247464;28;20020;-68
2023/07/12 12:06:45;;;;;;;1.50;1.15;;;35.20;1.00;;;;;;5229643;28;20142;-69
2023/07/12 12:09:16;;;;;;;1.35;1.17;;;35.40;1.00;;;;;;5247196;28;20266;-70
2023/07/12 12:11:54;;;;;;;1.40;1.13;;;35.30;1.00;;;;;;5247087;28;20025;-69
2023/07/12 12:14:29;;;;;;;2.42;1.40;;;35.40;1.00;;;;;;5243523;28;20027;-69
2023/07/12 12:17:07;;;;;;;2.03;1.20;;;35.50;1.00;;;;;;5225172;28;20481;-70
2023/07/12 12:19:44;;;;;;;2.42;1.50;;;36.50;1.00;;;;;;5207964;28;20039;-69
2023/07/12 12:22:18;;;;;;;1.80;1.13;;;36.80;1.00;;;;;;5199178;28;20048;-69
2023/07/12 12:24:55;;;;;;;2.10;1.30;;;37.10;1.00;;;;;;5203373;28;20520;-69
2023/07/12 12:27:39;;;;;;;2.15;1.60;;;37.30;1.00;;;;;;5179436;28;20037;-71
2023/07/12 12:30:26;;;;;;;;;;;36.40;1.00;;;;;;5197720;28;20045;-69
2023/07/12 12:33:22;;;;;;;1.77;1.48;;;36.00;1.00;;;;;;5243708;28;19908;-70
2023/07/12 12:36:03;;;;;;;2.03;1.50;;;35.50;1.00;;;;;;5223949;28;20031;-69
2023/07/12 12:38:39;;;;;;;2.00;1.30;;;36.00;1.00;;;;;;5208231;28;20028;-69
2023/07/12 12:41:14;;;;;;;2.45;1.45;;;37.10;1.00;;;;;;5207001;28;20043;-70
2023/07/12 12:44:18;;;;;;;2.15;1.40;;;37.10;1.00;;;;;;5204923;28;20029;-70
2023/07/12 12:46:51;;;;;;;;;;;36.40;1.00;;;;;;5223662;28;20029;-68
2023/07/12 12:49:29;;;;;;;1.05;1.00;;;36.50;1.00;;;;;;5225016;28;19916;-70
2023/07/12 12:52:37;;;;;;;1.55;1.35;;;36.40;1.00;;;;;;5206766;28;20197;-69
2023/07/12 12:55:12;;;;;;;2.65;1.65;;;37.00;1.00;;;;;;5123975;28;20026;-69
2023/07/12 12:57:45;;;;;;;1.20;1.10;;;36.40;1.00;;;;;;5136095;28;20039;-69
2023/07/12 13:00:22;;;;;;;2.05;1.35;;;36.40;1.00;;;;;;5116703;28;20031;-70
2023/07/12 13:02:57;;;;;;;1.73;1.30;;;37.00;1.00;;;;;;5137930;28;20050;-68
2023/07/12 13:05:29;;;;;;;2.78;1.35;;;37.50;1.00;;;;;;5140160;28;20047;-68
2023/07/12 13:08:14;;;;;;;2.80;1.65;;;36.40;1.00;;;;;;5130966;28;20043;-69
2023/07/12 13:10:45;;;;;;;1.40;1.30;;;35.20;1.00;;;;;;5136963;28;20161;-71
2023/07/12 13:13:19;;;;;;;2.05;1.60;;;35.50;1.00;;;;;;5140432;28;20646;-70
2023/07/12 13:15:51;;;;;;;2.17;1.70;;;34.70;1.00;;;;;;5137960;28;20027;-69
2023/07/12 13:18:25;;;;;;;2.55;1.67;;;34.50;1.00;;;;;;5123768;28;20039;-69
2023/07/12 13:20:57;;;;;;;2.10;1.08;;;34.30;1.00;;;;;;5140233;28;20053;-69
2023/07/12 13:23:31;;;;;;;1.98;1.50;;;34.90;1.00;;;;;;5140226;28;20349;-70
2023/07/12 13:26:07;;;;;;;2.55;1.58;;;35.10;1.00;;;;;;5132952;28;20039;-69
2023/07/12 13:28:43;;;;;;;3.17;1.25;;;34.90;1.00;;;;;;5135151;28;20583;-69
2023/07/12 13:31:18;;;;;;;2.25;1.50;;;34.60;1.00;;;;;;5188915;28;20035;-69
2023/07/12 13:33:49;;;;;;;2.05;1.20;;;34.90;1.00;;;;;;5203236;28;20021;-69
2023/07/12 13:36:35;;;;;;;1.88;1.20;;;34.70;1.00;;;;;;5215904;28;20376;-69
2023/07/12 13:39:16;;;;;;;2.40;1.85;;;35.10;1.00;;;;;;5221437;28;20283;-69
2023/07/12 13:41:56;;;;;;;1.77;1.67;;;35.80;1.00;;;;;;5189320;28;20157;-69
2023/07/12 13:44:27;;;;;;;1.83;1.25;;;36.60;1.00;;;;;;5205995;28;20037;-69
2023/07/12 13:47:02;;;;;;;1.75;1.65;;;36.10;1.00;;;;;;5222383;28;20046;-69